sensor_id;sensor_type;location;lat;lon;timestamp;P1;durP1;ratioP1;P2;durP2;ratioP2
60352;SDS011;46196;52.970;6.954;2023-04-12T00:01:28;7.85;;;2.92;;
60352;SDS011;46196;52.970;6.954;2023-04-12T00:03:54;9.05;;;3.00;;
60352;SDS011;46196;52.970;6.954;2023-04-12T00:06:20;8.35;;;3.13;;
60352;SDS011;46196;52.970;6.954;2023-04-12T00:08:51;7.75;;;2.92;;
60352;SDS011;46196;52.970;6.954;2023-04-12T00:11:18;9.50;;;3.08;;
60352;SDS011;46196;52.970;6.954;2023-04-12T00:13:43;6.78;;;3.00;;
60352;SDS011;46196;52.970;6.954;2023-04-12T00:16:10;8.32;;;3.00;;
60352;SDS011;46196;52.970;6.954;2023-04-12T00:18:39;15.02;;;3.17;;
60352;SDS011;46196;52.970;6.954;2023-04-12T00:21:06;5.63;;;3.03;;
60352;SDS011;46196;52.970;6.954;2023-04-12T00:23:34;5.97;;;3.00;;
60352;SDS011;46196;52.970;6.954;2023-04-12T00:26:02;9.52;;;3.20;;
60352;SDS011;46196;52.970;6.954;2023-04-12T00:28:28;6.50;;;2.90;;
60352;SDS011;46196;52.970;6.954;2023-04-12T00:30:54;7.68;;;3.38;;
60352;SDS011;46196;52.970;6.954;2023-04-12T00:33:20;10.57;;;3.30;;
60352;SDS011;46196;52.970;6.954;2023-04-12T00:35:45;7.57;;;2.80;;
60352;SDS011;46196;52.970;6.954;2023-04-12T00:38:11;6.63;;;3.10;;
60352;SDS011;46196;52.970;6.954;2023-04-12T00:40:42;11.55;;;2.80;;
60352;SDS011;46196;52.970;6.954;2023-04-12T00:43:09;10.50;;;3.15;;
60352;SDS011;46196;52.970;6.954;2023-04-12T00:45:39;7.43;;;3.10;;
60352;SDS011;46196;52.970;6.954;2023-04-12T00:48:06;13.23;;;2.83;;
60352;SDS011;46196;52.970;6.954;2023-04-12T00:50:33;7.28;;;3.40;;
60352;SDS011;46196;52.970;6.954;2023-04-12T00:53:00;8.30;;;2.97;;
60352;SDS011;46196;52.970;6.954;2023-04-12T00:55:27;6.95;;;2.90;;
60352;SDS011;46196;52.970;6.954;2023-04-12T00:57:53;6.43;;;3.17;;
60352;SDS011;46196;52.970;6.954;2023-04-12T01:00:19;9.35;;;3.45;;
60352;SDS011;46196;52.970;6.954;2023-04-12T01:02:45;5.78;;;3.03;;
60352;SDS011;46196;52.970;6.954;2023-04-12T01:05:15;6.55;;;3.38;;
60352;SDS011;46196;52.970;6.954;2023-04-12T01:15:53;5.20;;;3.20;;
60352;SDS011;46196;52.970;6.954;2023-04-12T01:18:26;9.45;;;3.50;;
60352;SDS011;46196;52.970;6.954;2023-04-12T01:21:02;7.75;;;3.20;;
60352;SDS011;46196;52.970;6.954;2023-04-12T01:26:53;7.10;;;3.13;;
60352;SDS011;46196;52.970;6.954;2023-04-12T01:29:21;7.40;;;3.42;;
60352;SDS011;46196;52.970;6.954;2023-04-12T01:31:52;8.93;;;3.83;;
60352;SDS011;46196;52.970;6.954;2023-04-12T01:34:21;8.95;;;3.83;;
60352;SDS011;46196;52.970;6.954;2023-04-12T01:36:49;7.43;;;3.20;;
60352;SDS011;46196;52.970;6.954;2023-04-12T01:39:16;7.53;;;3.35;;
60352;SDS011;46196;52.970;6.954;2023-04-12T01:41:42;7.40;;;3.15;;
60352;SDS011;46196;52.970;6.954;2023-04-12T01:44:12;10.73;;;3.70;;
60352;SDS011;46196;52.970;6.954;2023-04-12T01:46:45;8.27;;;3.60;;
60352;SDS011;46196;52.970;6.954;2023-04-12T01:49:12;7.90;;;3.80;;
60352;SDS011;46196;52.970;6.954;2023-04-12T01:54:23;8.63;;;3.53;;
60352;SDS011;46196;52.970;6.954;2023-04-12T01:56:53;13.95;;;4.25;;
60352;SDS011;46196;52.970;6.954;2023-04-12T01:59:22;7.82;;;3.33;;
60352;SDS011;46196;52.970;6.954;2023-04-12T02:01:52;7.03;;;3.47;;
60352;SDS011;46196;52.970;6.954;2023-04-12T02:04:18;8.88;;;3.90;;
60352;SDS011;46196;52.970;6.954;2023-04-12T02:06:45;9.25;;;3.80;;
60352;SDS011;46196;52.970;6.954;2023-04-12T02:09:15;7.13;;;3.50;;
60352;SDS011;46196;52.970;6.954;2023-04-12T02:11:41;6.57;;;3.30;;
60352;SDS011;46196;52.970;6.954;2023-04-12T02:14:11;10.65;;;3.85;;
60352;SDS011;46196;52.970;6.954;2023-04-12T02:16:37;6.82;;;3.40;;
60352;SDS011;46196;52.970;6.954;2023-04-12T02:19:03;10.23;;;3.88;;
60352;SDS011;46196;52.970;6.954;2023-04-12T02:21:38;7.37;;;3.93;;
60352;SDS011;46196;52.970;6.954;2023-04-12T02:24:08;10.00;;;4.43;;
60352;SDS011;46196;52.970;6.954;2023-04-12T02:26:35;8.77;;;3.85;;
60352;SDS011;46196;52.970;6.954;2023-04-12T02:29:05;9.48;;;3.65;;
60352;SDS011;46196;52.970;6.954;2023-04-12T02:31:33;6.03;;;3.60;;
60352;SDS011;46196;52.970;6.954;2023-04-12T02:34:03;9.93;;;3.90;;
60352;SDS011;46196;52.970;6.954;2023-04-12T02:36:29;6.55;;;3.50;;
60352;SDS011;46196;52.970;6.954;2023-04-12T02:38:55;11.00;;;4.00;;
60352;SDS011;46196;52.970;6.954;2023-04-12T02:41:21;8.10;;;3.42;;
60352;SDS011;46196;52.970;6.954;2023-04-12T02:43:47;11.20;;;3.60;;
60352;SDS011;46196;52.970;6.954;2023-04-12T02:46:14;9.65;;;3.67;;
60352;SDS011;46196;52.970;6.954;2023-04-12T02:48:46;7.80;;;4.15;;
60352;SDS011;46196;52.970;6.954;2023-04-12T02:51:12;10.25;;;4.03;;
60352;SDS011;46196;52.970;6.954;2023-04-12T02:53:37;11.00;;;4.85;;
60352;SDS011;46196;52.970;6.954;2023-04-12T02:56:03;9.00;;;3.40;;
60352;SDS011;46196;52.970;6.954;2023-04-12T02:58:29;7.90;;;3.60;;
60352;SDS011;46196;52.970;6.954;2023-04-12T03:00:57;6.15;;;3.47;;
60352;SDS011;46196;52.970;6.954;2023-04-12T03:03:24;10.20;;;3.60;;
60352;SDS011;46196;52.970;6.954;2023-04-12T03:05:51;9.15;;;3.88;;
60352;SDS011;46196;52.970;6.954;2023-04-12T03:08:17;10.13;;;3.42;;
60352;SDS011;46196;52.970;6.954;2023-04-12T03:10:43;8.55;;;3.35;;
60352;SDS011;46196;52.970;6.954;2023-04-12T03:13:09;7.70;;;3.70;;
60352;SDS011;46196;52.970;6.954;2023-04-12T03:15:35;8.82;;;3.97;;
60352;SDS011;46196;52.970;6.954;2023-04-12T03:18:01;6.88;;;3.55;;
60352;SDS011;46196;52.970;6.954;2023-04-12T03:20:27;8.38;;;3.65;;
60352;SDS011;46196;52.970;6.954;2023-04-12T03:22:53;7.93;;;3.92;;
60352;SDS011;46196;52.970;6.954;2023-04-12T03:25:19;7.13;;;3.58;;
60352;SDS011;46196;52.970;6.954;2023-04-12T03:27:45;11.07;;;4.20;;
60352;SDS011;46196;52.970;6.954;2023-04-12T03:30:11;9.48;;;3.80;;
60352;SDS011;46196;52.970;6.954;2023-04-12T03:32:40;8.07;;;3.28;;
60352;SDS011;46196;52.970;6.954;2023-04-12T03:35:06;8.13;;;3.40;;
60352;SDS011;46196;52.970;6.954;2023-04-12T03:37:33;12.18;;;3.10;;
60352;SDS011;46196;52.970;6.954;2023-04-12T03:39:59;5.25;;;3.20;;
60352;SDS011;46196;52.970;6.954;2023-04-12T03:42:26;7.70;;;3.65;;
60352;SDS011;46196;52.970;6.954;2023-04-12T03:44:52;6.43;;;3.30;;
60352;SDS011;46196;52.970;6.954;2023-04-12T03:47:18;5.80;;;3.00;;
60352;SDS011;46196;52.970;6.954;2023-04-12T03:49:48;6.72;;;3.17;;
60352;SDS011;46196;52.970;6.954;2023-04-12T03:52:14;6.78;;;3.40;;
60352;SDS011;46196;52.970;6.954;2023-04-12T03:54:40;7.30;;;3.42;;
60352;SDS011;46196;52.970;6.954;2023-04-12T03:57:06;7.90;;;3.75;;
60352;SDS011;46196;52.970;6.954;2023-04-12T03:59:32;13.57;;;3.47;;
60352;SDS011;46196;52.970;6.954;2023-04-12T04:01:58;6.45;;;3.40;;
60352;SDS011;46196;52.970;6.954;2023-04-12T04:04:25;7.97;;;3.38;;
60352;SDS011;46196;52.970;6.954;2023-04-12T04:06:52;8.00;;;3.83;;
60352;SDS011;46196;52.970;6.954;2023-04-12T04:09:18;6.80;;;3.78;;
60352;SDS011;46196;52.970;6.954;2023-04-12T04:11:44;7.70;;;3.40;;
60352;SDS011;46196;52.970;6.954;2023-04-12T04:14:11;8.73;;;3.33;;
60352;SDS011;46196;52.970;6.954;2023-04-12T04:16:37;8.35;;;3.22;;
60352;SDS011;46196;52.970;6.954;2023-04-12T04:19:03;7.20;;;3.25;;
60352;SDS011;46196;52.970;6.954;2023-04-12T04:21:28;8.18;;;3.10;;
60352;SDS011;46196;52.970;6.954;2023-04-12T04:23:54;6.43;;;3.30;;
60352;SDS011;46196;52.970;6.954;2023-04-12T04:26:23;6.78;;;3.15;;
60352;SDS011;46196;52.970;6.954;2023-04-12T04:28:58;7.97;;;4.03;;
60352;SDS011;46196;52.970;6.954;2023-04-12T04:31:28;6.78;;;3.00;;
60352;SDS011;46196;52.970;6.954;2023-04-12T04:34:00;5.55;;;3.53;;
60352;SDS011;46196;52.970;6.954;2023-04-12T04:36:27;7.97;;;3.08;;
60352;SDS011;46196;52.970;6.954;2023-04-12T04:38:54;6.35;;;2.92;;
60352;SDS011;46196;52.970;6.954;2023-04-12T04:41:21;4.47;;;2.92;;
60352;SDS011;46196;52.970;6.954;2023-04-12T04:43:48;4.97;;;2.92;;
60352;SDS011;46196;52.970;6.954;2023-04-12T04:46:14;7.20;;;3.00;;
60352;SDS011;46196;52.970;6.954;2023-04-12T04:48:41;7.68;;;2.97;;
60352;SDS011;46196;52.970;6.954;2023-04-12T04:51:07;7.75;;;2.95;;
60352;SDS011;46196;52.970;6.954;2023-04-12T04:53:33;6.85;;;2.88;;
60352;SDS011;46196;52.970;6.954;2023-04-12T04:55:59;9.45;;;2.58;;
60352;SDS011;46196;52.970;6.954;2023-04-12T04:58:25;7.60;;;3.05;;
60352;SDS011;46196;52.970;6.954;2023-04-12T05:00:51;4.47;;;2.70;;
60352;SDS011;46196;52.970;6.954;2023-04-12T05:03:21;9.10;;;3.00;;
60352;SDS011;46196;52.970;6.954;2023-04-12T05:05:50;8.65;;;2.63;;
60352;SDS011;46196;52.970;6.954;2023-04-12T05:08:16;6.38;;;2.95;;
60352;SDS011;46196;52.970;6.954;2023-04-12T05:10:42;5.85;;;2.80;;
60352;SDS011;46196;52.970;6.954;2023-04-12T05:13:08;6.45;;;2.55;;
60352;SDS011;46196;52.970;6.954;2023-04-12T05:15:34;6.80;;;2.55;;
60352;SDS011;46196;52.970;6.954;2023-04-12T05:18:00;5.93;;;2.88;;
60352;SDS011;46196;52.970;6.954;2023-04-12T05:20:26;8.25;;;3.05;;
60352;SDS011;46196;52.970;6.954;2023-04-12T05:22:51;7.47;;;3.10;;
60352;SDS011;46196;52.970;6.954;2023-04-12T05:25:17;6.78;;;2.45;;
60352;SDS011;46196;52.970;6.954;2023-04-12T05:27:45;4.03;;;2.60;;
60352;SDS011;46196;52.970;6.954;2023-04-12T05:30:11;5.25;;;2.60;;
60352;SDS011;46196;52.970;6.954;2023-04-12T05:32:37;8.75;;;3.28;;
60352;SDS011;46196;52.970;6.954;2023-04-12T05:35:03;5.97;;;2.35;;
60352;SDS011;46196;52.970;6.954;2023-04-12T05:37:30;6.50;;;2.90;;
60352;SDS011;46196;52.970;6.954;2023-04-12T05:39:56;13.63;;;3.45;;
60352;SDS011;46196;52.970;6.954;2023-04-12T05:42:21;6.75;;;3.10;;
60352;SDS011;46196;52.970;6.954;2023-04-12T05:44:48;5.32;;;2.60;;
60352;SDS011;46196;52.970;6.954;2023-04-12T05:47:15;8.02;;;2.60;;
60352;SDS011;46196;52.970;6.954;2023-04-12T05:49:41;6.68;;;3.08;;
60352;SDS011;46196;52.970;6.954;2023-04-12T05:52:06;5.40;;;2.63;;
60352;SDS011;46196;52.970;6.954;2023-04-12T05:54:32;6.75;;;3.05;;
60352;SDS011;46196;52.970;6.954;2023-04-12T05:56:59;4.55;;;2.67;;
60352;SDS011;46196;52.970;6.954;2023-04-12T05:59:24;5.13;;;2.95;;
60352;SDS011;46196;52.970;6.954;2023-04-12T06:01:50;5.78;;;2.90;;
60352;SDS011;46196;52.970;6.954;2023-04-12T06:04:16;8.10;;;3.10;;
60352;SDS011;46196;52.970;6.954;2023-04-12T06:06:42;7.25;;;3.22;;
60352;SDS011;46196;52.970;6.954;2023-04-12T06:09:08;7.38;;;2.95;;
60352;SDS011;46196;52.970;6.954;2023-04-12T06:11:34;6.53;;;2.70;;
60352;SDS011;46196;52.970;6.954;2023-04-12T06:14:03;8.88;;;3.55;;
60352;SDS011;46196;52.970;6.954;2023-04-12T06:16:28;10.15;;;3.35;;
60352;SDS011;46196;52.970;6.954;2023-04-12T06:18:54;6.32;;;2.72;;
60352;SDS011;46196;52.970;6.954;2023-04-12T06:21:20;6.35;;;2.65;;
60352;SDS011;46196;52.970;6.954;2023-04-12T06:23:46;5.78;;;2.75;;
60352;SDS011;46196;52.970;6.954;2023-04-12T06:26:12;6.80;;;3.20;;
60352;SDS011;46196;52.970;6.954;2023-04-12T06:28:38;8.80;;;3.28;;
60352;SDS011;46196;52.970;6.954;2023-04-12T06:31:04;9.27;;;3.17;;
60352;SDS011;46196;52.970;6.954;2023-04-12T06:33:31;9.15;;;3.17;;
60352;SDS011;46196;52.970;6.954;2023-04-12T06:35:56;5.45;;;2.80;;
60352;SDS011;46196;52.970;6.954;2023-04-12T06:38:22;5.65;;;3.75;;
60352;SDS011;46196;52.970;6.954;2023-04-12T06:40:48;7.35;;;2.90;;
60352;SDS011;46196;52.970;6.954;2023-04-12T06:43:15;7.00;;;3.13;;
60352;SDS011;46196;52.970;6.954;2023-04-12T06:45:46;5.90;;;2.90;;
60352;SDS011;46196;52.970;6.954;2023-04-12T06:48:14;6.95;;;3.28;;
60352;SDS011;46196;52.970;6.954;2023-04-12T06:50:40;5.72;;;2.83;;
60352;SDS011;46196;52.970;6.954;2023-04-12T06:53:06;6.57;;;3.10;;
60352;SDS011;46196;52.970;6.954;2023-04-12T06:55:31;6.32;;;3.13;;
60352;SDS011;46196;52.970;6.954;2023-04-12T06:57:57;7.32;;;3.05;;
60352;SDS011;46196;52.970;6.954;2023-04-12T07:00:23;5.20;;;3.17;;
60352;SDS011;46196;52.970;6.954;2023-04-12T07:02:49;8.40;;;2.83;;
60352;SDS011;46196;52.970;6.954;2023-04-12T07:05:15;5.82;;;3.03;;
60352;SDS011;46196;52.970;6.954;2023-04-12T07:07:41;4.88;;;3.08;;
60352;SDS011;46196;52.970;6.954;2023-04-12T07:10:07;8.32;;;3.60;;
60352;SDS011;46196;52.970;6.954;2023-04-12T07:12:33;7.80;;;3.20;;
60352;SDS011;46196;52.970;6.954;2023-04-12T07:14:58;7.10;;;3.20;;
60352;SDS011;46196;52.970;6.954;2023-04-12T07:17:24;5.75;;;3.13;;
60352;SDS011;46196;52.970;6.954;2023-04-12T07:19:53;6.40;;;2.85;;
60352;SDS011;46196;52.970;6.954;2023-04-12T07:22:19;7.30;;;3.67;;
60352;SDS011;46196;52.970;6.954;2023-04-12T07:24:45;6.85;;;3.22;;
60352;SDS011;46196;52.970;6.954;2023-04-12T07:27:11;5.80;;;3.40;;
60352;SDS011;46196;52.970;6.954;2023-04-12T07:29:36;7.63;;;3.35;;
60352;SDS011;46196;52.970;6.954;2023-04-12T07:32:02;8.10;;;3.30;;
60352;SDS011;46196;52.970;6.954;2023-04-12T07:34:28;6.70;;;4.00;;
60352;SDS011;46196;52.970;6.954;2023-04-12T07:36:54;5.32;;;3.58;;
60352;SDS011;46196;52.970;6.954;2023-04-12T07:39:20;8.00;;;4.72;;
60352;SDS011;46196;52.970;6.954;2023-04-12T07:41:47;6.90;;;3.83;;
60352;SDS011;46196;52.970;6.954;2023-04-12T07:44:14;7.93;;;4.30;;
60352;SDS011;46196;52.970;6.954;2023-04-12T07:46:40;6.63;;;3.70;;
60352;SDS011;46196;52.970;6.954;2023-04-12T07:49:06;8.40;;;4.60;;
60352;SDS011;46196;52.970;6.954;2023-04-12T07:51:34;8.68;;;5.10;;
60352;SDS011;46196;52.970;6.954;2023-04-12T07:54:00;11.85;;;4.13;;
60352;SDS011;46196;52.970;6.954;2023-04-12T07:56:27;7.85;;;4.65;;
60352;SDS011;46196;52.970;6.954;2023-04-12T07:58:53;6.80;;;4.00;;
60352;SDS011;46196;52.970;6.954;2023-04-12T08:01:19;9.77;;;4.10;;
60352;SDS011;46196;52.970;6.954;2023-04-12T08:03:45;9.05;;;4.50;;
60352;SDS011;46196;52.970;6.954;2023-04-12T08:06:11;8.55;;;4.80;;
60352;SDS011;46196;52.970;6.954;2023-04-12T08:08:37;7.32;;;4.03;;
60352;SDS011;46196;52.970;6.954;2023-04-12T08:11:03;7.78;;;4.53;;
60352;SDS011;46196;52.970;6.954;2023-04-12T08:13:30;6.57;;;4.28;;
60352;SDS011;46196;52.970;6.954;2023-04-12T08:15:57;10.00;;;4.82;;
60352;SDS011;46196;52.970;6.954;2023-04-12T08:18:23;6.15;;;3.95;;
60352;SDS011;46196;52.970;6.954;2023-04-12T08:20:48;7.40;;;4.85;;
60352;SDS011;46196;52.970;6.954;2023-04-12T08:23:14;7.53;;;4.28;;
60352;SDS011;46196;52.970;6.954;2023-04-12T08:25:40;9.02;;;4.30;;
60352;SDS011;46196;52.970;6.954;2023-04-12T08:28:06;8.07;;;4.80;;
60352;SDS011;46196;52.970;6.954;2023-04-12T08:30:32;7.28;;;5.03;;
60352;SDS011;46196;52.970;6.954;2023-04-12T08:32:59;6.97;;;4.70;;
60352;SDS011;46196;52.970;6.954;2023-04-12T08:35:24;7.35;;;4.97;;
60352;SDS011;46196;52.970;6.954;2023-04-12T08:37:50;8.70;;;4.78;;
60352;SDS011;46196;52.970;6.954;2023-04-12T08:40:16;8.60;;;4.80;;
60352;SDS011;46196;52.970;6.954;2023-04-12T08:42:42;8.98;;;5.05;;
60352;SDS011;46196;52.970;6.954;2023-04-12T08:45:09;7.90;;;4.20;;
60352;SDS011;46196;52.970;6.954;2023-04-12T08:47:37;8.85;;;4.30;;
60352;SDS011;46196;52.970;6.954;2023-04-12T08:50:07;6.50;;;4.47;;
60352;SDS011;46196;52.970;6.954;2023-04-12T08:52:35;8.85;;;5.22;;
60352;SDS011;46196;52.970;6.954;2023-04-12T08:55:02;6.85;;;4.50;;
60352;SDS011;46196;52.970;6.954;2023-04-12T08:57:29;5.90;;;4.28;;
60352;SDS011;46196;52.970;6.954;2023-04-12T08:59:58;8.55;;;4.53;;
60352;SDS011;46196;52.970;6.954;2023-04-12T09:02:25;6.75;;;4.13;;
60352;SDS011;46196;52.970;6.954;2023-04-12T09:04:51;8.20;;;4.55;;
60352;SDS011;46196;52.970;6.954;2023-04-12T09:07:18;6.38;;;4.35;;
60352;SDS011;46196;52.970;6.954;2023-04-12T09:09:47;5.85;;;4.18;;
60352;SDS011;46196;52.970;6.954;2023-04-12T09:12:13;5.53;;;3.75;;
60352;SDS011;46196;52.970;6.954;2023-04-12T09:14:40;6.00;;;3.90;;
60352;SDS011;46196;52.970;6.954;2023-04-12T09:17:25;5.97;;;3.97;;
60352;SDS011;46196;52.970;6.954;2023-04-12T09:19:52;8.07;;;3.70;;
60352;SDS011;46196;52.970;6.954;2023-04-12T09:22:35;5.78;;;4.00;;
60352;SDS011;46196;52.970;6.954;2023-04-12T09:25:04;6.68;;;3.83;;
60352;SDS011;46196;52.970;6.954;2023-04-12T09:27:44;6.32;;;4.00;;
60352;SDS011;46196;52.970;6.954;2023-04-12T09:30:14;6.65;;;4.30;;
60352;SDS011;46196;52.970;6.954;2023-04-12T09:32:41;5.38;;;3.72;;
60352;SDS011;46196;52.970;6.954;2023-04-12T09:35:08;6.35;;;4.45;;
60352;SDS011;46196;52.970;6.954;2023-04-12T09:37:34;7.85;;;4.53;;
60352;SDS011;46196;52.970;6.954;2023-04-12T09:40:06;9.10;;;5.30;;
60352;SDS011;46196;52.970;6.954;2023-04-12T09:42:34;9.15;;;5.18;;
60352;SDS011;46196;52.970;6.954;2023-04-12T09:45:23;7.82;;;4.63;;
60352;SDS011;46196;52.970;6.954;2023-04-12T09:47:50;7.63;;;5.35;;
60352;SDS011;46196;52.970;6.954;2023-04-12T09:50:23;7.65;;;5.18;;
60352;SDS011;46196;52.970;6.954;2023-04-12T09:52:54;11.45;;;5.65;;
60352;SDS011;46196;52.970;6.954;2023-04-12T09:55:21;7.80;;;5.35;;
60352;SDS011;46196;52.970;6.954;2023-04-12T09:57:50;10.68;;;6.30;;
60352;SDS011;46196;52.970;6.954;2023-04-12T10:00:18;10.95;;;6.97;;
60352;SDS011;46196;52.970;6.954;2023-04-12T10:02:48;9.88;;;6.80;;
60352;SDS011;46196;52.970;6.954;2023-04-12T10:05:16;12.65;;;7.60;;
60352;SDS011;46196;52.970;6.954;2023-04-12T10:07:44;11.73;;;7.50;;
60352;SDS011;46196;52.970;6.954;2023-04-12T10:10:11;11.20;;;7.53;;
60352;SDS011;46196;52.970;6.954;2023-04-12T10:12:41;9.80;;;6.65;;
60352;SDS011;46196;52.970;6.954;2023-04-12T10:15:10;8.90;;;6.88;;
60352;SDS011;46196;52.970;6.954;2023-04-12T10:20:17;9.98;;;7.50;;
60352;SDS011;46196;52.970;6.954;2023-04-12T10:22:45;11.43;;;7.38;;
60352;SDS011;46196;52.970;6.954;2023-04-12T10:25:15;11.00;;;7.47;;
60352;SDS011;46196;52.970;6.954;2023-04-12T10:27:43;13.35;;;8.02;;
60352;SDS011;46196;52.970;6.954;2023-04-12T10:32:48;12.05;;;7.10;;
60352;SDS011;46196;52.970;6.954;2023-04-12T10:38:47;12.82;;;7.30;;
60352;SDS011;46196;52.970;6.954;2023-04-12T10:41:31;11.95;;;7.85;;
60352;SDS011;46196;52.970;6.954;2023-04-12T10:44:21;13.18;;;7.28;;
60352;SDS011;46196;52.970;6.954;2023-04-12T10:46:50;9.57;;;7.00;;
60352;SDS011;46196;52.970;6.954;2023-04-12T10:49:16;13.32;;;7.25;;
60352;SDS011;46196;52.970;6.954;2023-04-12T10:54:30;10.13;;;6.72;;
60352;SDS011;46196;52.970;6.954;2023-04-12T10:56:59;9.75;;;6.10;;
60352;SDS011;46196;52.970;6.954;2023-04-12T10:59:49;13.13;;;6.90;;
60352;SDS011;46196;52.970;6.954;2023-04-12T11:07:37;16.00;;;6.80;;
60352;SDS011;46196;52.970;6.954;2023-04-12T11:10:11;10.13;;;6.32;;
60352;SDS011;46196;52.970;6.954;2023-04-12T11:12:39;11.68;;;6.20;;
60352;SDS011;46196;52.970;6.954;2023-04-12T11:15:05;12.05;;;6.82;;
60352;SDS011;46196;52.970;6.954;2023-04-12T11:17:35;10.85;;;6.70;;
60352;SDS011;46196;52.970;6.954;2023-04-12T11:20:01;11.95;;;6.82;;
60352;SDS011;46196;52.970;6.954;2023-04-12T11:22:30;12.00;;;6.63;;
60352;SDS011;46196;52.970;6.954;2023-04-12T11:24:57;11.65;;;6.93;;
60352;SDS011;46196;52.970;6.954;2023-04-12T11:27:25;12.32;;;5.80;;
60352;SDS011;46196;52.970;6.954;2023-04-12T11:29:53;8.88;;;5.22;;
60352;SDS011;46196;52.970;6.954;2023-04-12T11:32:21;15.13;;;6.18;;
60352;SDS011;46196;52.970;6.954;2023-04-12T11:34:48;12.65;;;6.38;;
60352;SDS011;46196;52.970;6.954;2023-04-12T11:37:16;17.10;;;5.45;;
60352;SDS011;46196;52.970;6.954;2023-04-12T11:39:44;11.35;;;5.85;;
60352;SDS011;46196;52.970;6.954;2023-04-12T11:42:11;11.70;;;5.40;;
60352;SDS011;46196;52.970;6.954;2023-04-12T11:44:40;10.43;;;4.57;;
60352;SDS011;46196;52.970;6.954;2023-04-12T11:47:17;8.15;;;4.80;;
60352;SDS011;46196;52.970;6.954;2023-04-12T11:49:46;13.60;;;4.93;;
60352;SDS011;46196;52.970;6.954;2023-04-12T11:52:15;8.23;;;5.22;;
60352;SDS011;46196;52.970;6.954;2023-04-12T11:54:42;11.40;;;4.82;;
60352;SDS011;46196;52.970;6.954;2023-04-12T11:57:09;10.82;;;5.20;;
60352;SDS011;46196;52.970;6.954;2023-04-12T11:59:36;16.65;;;4.93;;
60352;SDS011;46196;52.970;6.954;2023-04-12T12:02:02;13.98;;;5.28;;
60352;SDS011;46196;52.970;6.954;2023-04-12T12:04:29;13.80;;;4.65;;
60352;SDS011;46196;52.970;6.954;2023-04-12T12:06:56;10.45;;;4.00;;
60352;SDS011;46196;52.970;6.954;2023-04-12T12:09:23;11.48;;;4.57;;
60352;SDS011;46196;52.970;6.954;2023-04-12T12:11:51;13.23;;;4.35;;
60352;SDS011;46196;52.970;6.954;2023-04-12T12:14:20;11.35;;;4.82;;
60352;SDS011;46196;52.970;6.954;2023-04-12T12:16:54;15.02;;;5.03;;
60352;SDS011;46196;52.970;6.954;2023-04-12T12:19:30;14.52;;;5.35;;
60352;SDS011;46196;52.970;6.954;2023-04-12T12:22:05;18.02;;;5.53;;
60352;SDS011;46196;52.970;6.954;2023-04-12T12:24:50;12.95;;;4.72;;
60352;SDS011;46196;52.970;6.954;2023-04-12T12:27:23;13.15;;;4.00;;
60352;SDS011;46196;52.970;6.954;2023-04-12T12:29:59;11.30;;;4.00;;
60352;SDS011;46196;52.970;6.954;2023-04-12T12:32:30;11.07;;;3.65;;
60352;SDS011;46196;52.970;6.954;2023-04-12T12:34:58;11.95;;;3.78;;
60352;SDS011;46196;52.970;6.954;2023-04-12T12:37:24;22.30;;;3.83;;
60352;SDS011;46196;52.970;6.954;2023-04-12T12:39:58;8.75;;;3.40;;
60352;SDS011;46196;52.970;6.954;2023-04-12T12:42:52;11.77;;;4.35;;
60352;SDS011;46196;52.970;6.954;2023-04-12T12:45:20;9.88;;;3.88;;
60352;SDS011;46196;52.970;6.954;2023-04-12T12:47:51;15.85;;;4.45;;
60352;SDS011;46196;52.970;6.954;2023-04-12T12:50:25;13.57;;;4.18;;
60352;SDS011;46196;52.970;6.954;2023-04-12T12:52:58;16.73;;;3.70;;
60352;SDS011;46196;52.970;6.954;2023-04-12T12:55:25;17.00;;;4.50;;
60352;SDS011;46196;52.970;6.954;2023-04-12T12:57:53;11.52;;;4.07;;
60352;SDS011;46196;52.970;6.954;2023-04-12T13:00:24;10.20;;;3.72;;
60352;SDS011;46196;52.970;6.954;2023-04-12T13:02:51;13.55;;;3.90;;
60352;SDS011;46196;52.970;6.954;2023-04-12T13:05:18;10.85;;;3.40;;
60352;SDS011;46196;52.970;6.954;2023-04-12T13:07:45;13.57;;;3.90;;
60352;SDS011;46196;52.970;6.954;2023-04-12T13:10:11;14.35;;;3.13;;
60352;SDS011;46196;52.970;6.954;2023-04-12T13:12:38;16.23;;;3.33;;
60352;SDS011;46196;52.970;6.954;2023-04-12T13:15:04;10.45;;;3.70;;
60352;SDS011;46196;52.970;6.954;2023-04-12T13:17:30;14.85;;;3.63;;
60352;SDS011;46196;52.970;6.954;2023-04-12T13:19:56;14.02;;;3.35;;
60352;SDS011;46196;52.970;6.954;2023-04-12T13:22:22;10.90;;;3.13;;
60352;SDS011;46196;52.970;6.954;2023-04-12T13:24:48;16.17;;;3.83;;
60352;SDS011;46196;52.970;6.954;2023-04-12T13:27:14;7.97;;;2.80;;
60352;SDS011;46196;52.970;6.954;2023-04-12T13:29:40;10.27;;;2.83;;
60352;SDS011;46196;52.970;6.954;2023-04-12T13:32:07;11.15;;;2.75;;
60352;SDS011;46196;52.970;6.954;2023-04-12T13:34:33;14.38;;;3.88;;
60352;SDS011;46196;52.970;6.954;2023-04-12T13:37:02;10.98;;;3.20;;
60352;SDS011;46196;52.970;6.954;2023-04-12T13:39:29;15.00;;;3.50;;
60352;SDS011;46196;52.970;6.954;2023-04-12T13:41:55;11.98;;;3.05;;
60352;SDS011;46196;52.970;6.954;2023-04-12T13:44:24;14.60;;;3.50;;
60352;SDS011;46196;52.970;6.954;2023-04-12T13:46:51;16.17;;;3.47;;
60352;SDS011;46196;52.970;6.954;2023-04-12T13:49:17;7.07;;;3.10;;
60352;SDS011;46196;52.970;6.954;2023-04-12T13:51:43;15.23;;;3.60;;
60352;SDS011;46196;52.970;6.954;2023-04-12T13:54:10;5.72;;;2.47;;
60352;SDS011;46196;52.970;6.954;2023-04-12T13:56:35;5.60;;;2.40;;
60352;SDS011;46196;52.970;6.954;2023-04-12T13:59:01;6.82;;;2.30;;
60352;SDS011;46196;52.970;6.954;2023-04-12T14:01:27;5.35;;;2.40;;
60352;SDS011;46196;52.970;6.954;2023-04-12T14:03:53;3.97;;;2.00;;
60352;SDS011;46196;52.970;6.954;2023-04-12T14:06:19;5.05;;;2.60;;
60352;SDS011;46196;52.970;6.954;2023-04-12T14:08:45;6.22;;;1.67;;
60352;SDS011;46196;52.970;6.954;2023-04-12T14:11:12;8.63;;;2.80;;
60352;SDS011;46196;52.970;6.954;2023-04-12T14:13:38;4.30;;;2.42;;
60352;SDS011;46196;52.970;6.954;2023-04-12T14:16:03;8.07;;;1.88;;
60352;SDS011;46196;52.970;6.954;2023-04-12T14:18:31;9.32;;;2.70;;
60352;SDS011;46196;52.970;6.954;2023-04-12T14:20:57;11.70;;;2.30;;
60352;SDS011;46196;52.970;6.954;2023-04-12T14:23:23;15.13;;;2.85;;
60352;SDS011;46196;52.970;6.954;2023-04-12T14:25:50;9.70;;;2.97;;
60352;SDS011;46196;52.970;6.954;2023-04-12T14:28:16;7.25;;;2.63;;
60352;SDS011;46196;52.970;6.954;2023-04-12T14:30:45;20.23;;;3.30;;
60352;SDS011;46196;52.970;6.954;2023-04-12T14:33:14;17.25;;;3.40;;
60352;SDS011;46196;52.970;6.954;2023-04-12T14:35:43;12.45;;;3.28;;
60352;SDS011;46196;52.970;6.954;2023-04-12T14:38:10;6.55;;;2.50;;
60352;SDS011;46196;52.970;6.954;2023-04-12T14:40:36;2.58;;;1.60;;
60352;SDS011;46196;52.970;6.954;2023-04-12T14:43:02;6.15;;;2.00;;
60352;SDS011;46196;52.970;6.954;2023-04-12T14:45:28;6.93;;;2.22;;
60352;SDS011;46196;52.970;6.954;2023-04-12T14:47:54;4.00;;;1.98;;
60352;SDS011;46196;52.970;6.954;2023-04-12T14:50:20;5.03;;;1.60;;
60352;SDS011;46196;52.970;6.954;2023-04-12T14:52:46;8.75;;;2.20;;
60352;SDS011;46196;52.970;6.954;2023-04-12T14:55:28;7.93;;;2.17;;
60352;SDS011;46196;52.970;6.954;2023-04-12T14:57:54;8.15;;;2.00;;
60352;SDS011;46196;52.970;6.954;2023-04-12T15:00:20;8.30;;;1.75;;
60352;SDS011;46196;52.970;6.954;2023-04-12T15:02:47;4.57;;;1.98;;
60352;SDS011;46196;52.970;6.954;2023-04-12T15:05:13;4.25;;;1.98;;
60352;SDS011;46196;52.970;6.954;2023-04-12T15:07:40;3.65;;;1.45;;
60352;SDS011;46196;52.970;6.954;2023-04-12T15:10:05;7.13;;;2.50;;
60352;SDS011;46196;52.970;6.954;2023-04-12T15:12:32;8.93;;;2.30;;
60352;SDS011;46196;52.970;6.954;2023-04-12T15:14:58;11.10;;;3.13;;
60352;SDS011;46196;52.970;6.954;2023-04-12T15:17:26;8.60;;;2.20;;